Riverchase, AL (35236)

6:49 PM CDT on July 30, 2016 (GMT -0500)
Chace Lake | | Change Station

Elev 489 ft 33.37 °N, 86.81 °W | Updated 4 minutes ago

Clear
Clear
86.0 °F
Feels Like 90 °F
N
0.0
Wind Variable Wind from NW
Gusts 0.7 mph

Today
High -- | Low -- °F
--% Chance of Precip.
Yesterday
High -- | Low -- °F
Precip. -- in
Pressure 29.97 in
Visibility 10.0 miles
Clouds Clear
Heat Index 90 °F
Dew Point 69 °F
Humidity 57%
Rainfall 0.00 in
Snow Depth Not available.
5:58 AM 7:47 PM
Waning Crescent, 10% visible
METAR KEET 302253Z AUTO 28005KT 10SM CLR 28/23 A2999 RMK AO2 SLP147 T02830233
Pressure 29.97 in
Visibility 10.0 miles
Clouds Clear
Heat Index 90 °F
Dew Point 69 °F
Humidity 57%
Rainfall 0.00 in
Snow Depth Not available.
5:58 AM 7:47 PM
Waning Crescent, 10% visible
METAR KEET 302253Z AUTO 28005KT 10SM CLR 28/23 A2999 RMK AO2 SLP147 T02830233

10-Day Weather Forecast

Almanac

Astronomy

Jul. 30, 2016 Rise Set
Actual Time
Civil Twilight
Nautical Twilight
Astronomical Twilight
Moon
Length of Visible Light
Length of Day
Tomorrow will be .
, % of the Moon is Illuminated

Today's Extremes

State Highs State Lows

Community

WunderPhotos

Upload Photos

1,928,680 photos uploaded!

WunderBlog® & News

Nearby

Air Quality

  Air Quality AQ Index Pollutant
Not available.

Snow Depth

Station Depth Elevation

Earthquake Activity

City Distance Mag. Time & Date
Minimum magnitude displayed is 2.5.

Coastal Water Temperatures

Place Temperature

Stations

Nearby Weather Stations

Station Location Temp. Windchill Dew Point Humidity Wind Precip. Elev Updated Type
                   

Watches & Warnings

There are currently no watches in effect.